Lanty, Arkansas
Current Conditions -  °F | °C
As of 5:53 AM on Monday 24 Nov 2014 (Local Time) from KRUE Reporting Station
Clear Clear  
Wind Chill: 40°   Ceiling: Unl
Heat Index: 44°   Visibility: 10mi
Dew Point: 36°   Wind: 8mph
Humidity: 73%   Direction: 260°W
Pressure: 29.79"   Gusts: NA
Location:  35.227°N, 92.6879°W
Report Text: KRUE 241153Z AUTO 26007KT 220V310 10SM CLR 07/02 A2979 RMK AO2 SLP084 7//// T00670022 10117 20067 51045
Loading
Personal Weather Stations






























Interactive Weather Map New forecast layout! Learn more

10-Day Weather Forecast

Advertisements
Track Severe Weather on mobile